createdAt,value
2015-11-30T00:00:07.768Z,97389
2015-11-30T00:00:17.971Z,97375
2015-11-30T00:00:27.784Z,97383
2015-11-30T00:00:48.129Z,97381
2015-11-30T00:01:18.801Z,97389
2015-11-30T00:01:28.567Z,97387
2015-11-30T00:01:48.756Z,97368
2015-11-30T00:01:58.788Z,97365
2015-11-30T00:02:08.788Z,97369
2015-11-30T00:02:18.788Z,97378
2015-11-30T00:02:28.756Z,97384
2015-11-30T00:02:38.772Z,97366
2015-11-30T00:02:48.775Z,97379
2015-11-30T00:02:59.009Z,97376
2015-11-30T00:03:08.806Z,97386
2015-11-30T00:03:18.791Z,97380
2015-11-30T00:03:28.791Z,97365
2015-11-30T00:03:38.791Z,97385
2015-11-30T00:03:48.795Z,97366
2015-11-30T00:03:58.841Z,97393
2015-11-30T00:04:08.826Z,97395
2015-11-30T00:04:18.810Z,97387
2015-11-30T00:04:28.810Z,97390
2015-11-30T00:04:38.810Z,97388
2015-11-30T00:04:48.812Z,97390
2015-11-30T00:04:58.812Z,97398
2015-11-30T00:05:09.047Z,97385
2015-11-30T00:05:18.859Z,97367
2015-11-30T00:05:29.093Z,97373
2015-11-30T00:05:38.859Z,97375
2015-11-30T00:05:48.861Z,97380
2015-11-30T00:06:19.252Z,97376
2015-11-30T00:06:29.049Z,97387
2015-11-30T00:06:39.017Z,97369
2015-11-30T00:06:49.052Z,97370
2015-11-30T00:06:59.052Z,97398
2015-11-30T00:07:09.567Z,97356
2015-11-30T00:07:30.020Z,97375
2015-11-30T00:07:39.989Z,97391
2015-11-30T00:07:49.492Z,97401
2015-11-30T00:08:00.039Z,97373
2015-11-30T00:08:10.039Z,97399
2015-11-30T00:08:20.023Z,97396
2015-11-30T00:08:30.039Z,97390
2015-11-30T00:08:40.039Z,97376
2015-11-30T00:08:50.026Z,97375
2015-11-30T00:09:10.620Z,97392
2015-11-30T00:09:20.667Z,97384
2015-11-30T00:09:30.636Z,97373
2015-11-30T00:09:50.154Z,97372
2015-11-30T00:10:14.295Z,97394
2015-11-30T00:10:20.170Z,97384
2015-11-30T00:10:30.436Z,97387
2015-11-30T00:10:40.201Z,97387
2015-11-30T00:11:00.376Z,97385
2015-11-30T00:11:10.595Z,97387
2015-11-30T00:11:20.423Z,97382
2015-11-30T00:11:30.376Z,97382
2015-11-30T00:11:50.532Z,97400
2015-11-30T00:12:00.784Z,97380
2015-11-30T00:12:10.597Z,97379
2015-11-30T00:12:20.550Z,97398
2015-11-30T00:12:30.550Z,97401
2015-11-30T00:12:40.597Z,97390
2015-11-30T00:12:50.566Z,97395
2015-11-30T00:13:00.569Z,97406
2015-11-30T00:13:21.256Z,97382
2015-11-30T00:13:50.803Z,97400
2015-11-30T00:14:00.993Z,97393
2015-11-30T00:14:10.978Z,97410
2015-11-30T00:14:20.993Z,97416
2015-11-30T00:14:30.962Z,97407
2015-11-30T00:14:41.165Z,97384
2015-11-30T00:14:50.978Z,97389
2015-11-30T00:15:11.153Z,97389
2015-11-30T00:15:21.153Z,97391
2015-11-30T00:15:31.371Z,97400
2015-11-30T00:15:41.434Z,97403
2015-11-30T00:16:05.342Z,97411
2015-11-30T00:16:11.889Z,97411
2015-11-30T00:16:21.827Z,97400
2015-11-30T00:16:31.842Z,97398
2015-11-30T00:16:41.842Z,97386
2015-11-30T00:16:51.858Z,97391
2015-11-30T00:17:02.108Z,97398
2015-11-30T00:17:11.861Z,97412
2015-11-30T00:17:22.376Z,97407
2015-11-30T00:17:31.845Z,97411
2015-11-30T00:17:41.876Z,97409
2015-11-30T00:17:51.876Z,97416
2015-11-30T00:18:01.892Z,97409
2015-11-30T00:18:11.864Z,97405
2015-11-30T00:18:21.911Z,97410
2015-11-30T00:18:31.911Z,97410
2015-11-30T00:18:41.879Z,97409
2015-11-30T00:18:51.895Z,97406
2015-11-30T00:19:01.879Z,97416
2015-11-30T00:19:11.867Z,97407
2015-11-30T00:19:21.929Z,97402
2015-11-30T00:19:31.914Z,97412
2015-11-30T00:19:41.882Z,97422
2015-11-30T00:19:51.914Z,97432
2015-11-30T00:20:02.117Z,97431
2015-11-30T00:20:12.322Z,97448
2015-11-30T00:20:21.916Z,97405
2015-11-30T00:20:32.088Z,97430
2015-11-30T00:20:41.900Z,97442
2015-11-30T00:20:51.900Z,97416
2015-11-30T00:21:01.931Z,97433
2015-11-30T00:21:12.154Z,97424
2015-11-30T00:21:21.951Z,97428
2015-11-30T00:21:32.185Z,97411
2015-11-30T00:21:41.982Z,97415
2015-11-30T00:21:52.123Z,97434
2015-11-30T00:22:01.920Z,97413
2015-11-30T00:22:11.922Z,97406
2015-11-30T00:22:22.125Z,97412
2015-11-30T00:22:31.953Z,97427
2015-11-30T00:22:52.344Z,97472
2015-11-30T00:23:02.359Z,97423
2015-11-30T00:23:12.580Z,97439
2015-11-30T00:23:22.361Z,97432
2015-11-30T00:23:32.408Z,97405
2015-11-30T00:23:42.377Z,97425
2015-11-30T00:23:52.377Z,97435
2015-11-30T00:24:02.361Z,97441
2015-11-30T00:24:32.850Z,97430
2015-11-30T00:24:42.834Z,97428
2015-11-30T00:25:03.006Z,97430
2015-11-30T00:25:12.992Z,97429
2015-11-30T00:25:23.039Z,97435
2015-11-30T00:25:33.039Z,97434
2015-11-30T00:25:43.008Z,97425
2015-11-30T00:25:53.055Z,97430
2015-11-30T00:26:03.055Z,97437
2015-11-30T00:26:13.026Z,97430
2015-11-30T00:26:23.058Z,97430
2015-11-30T00:26:33.011Z,97454
2015-11-30T00:26:43.245Z,97454
2015-11-30T00:27:13.264Z,97438
2015-11-30T00:27:23.279Z,97454
2015-11-30T00:27:33.295Z,97460
2015-11-30T00:27:53.701Z,97470
2015-11-30T00:28:03.936Z,97462
2015-11-30T00:28:24.407Z,97454
2015-11-30T00:28:34.345Z,97469
2015-11-30T00:28:44.361Z,97464
2015-11-30T00:28:54.595Z,97479
2015-11-30T00:29:04.595Z,97474
2015-11-30T00:29:14.376Z,97470
2015-11-30T00:29:24.364Z,97475
2015-11-30T00:29:34.410Z,97478
2015-11-30T00:29:44.410Z,97490
2015-11-30T00:29:54.426Z,97495
2015-11-30T00:30:04.395Z,97492
2015-11-30T00:30:14.614Z,97502
2015-11-30T00:30:24.428Z,97512
2015-11-30T00:30:34.397Z,97514
2015-11-30T00:30:44.381Z,97492
2015-11-30T00:30:54.600Z,97502
2015-11-30T00:31:04.428Z,97512
2015-11-30T00:31:14.428Z,97523
2015-11-30T00:31:24.431Z,97515
2015-11-30T00:31:34.431Z,97530
2015-11-30T00:31:44.415Z,97529
2015-11-30T00:31:54.400Z,97534
2015-11-30T00:32:04.462Z,97534
2015-11-30T00:32:14.415Z,97540
2015-11-30T00:32:24.417Z,97538
2015-11-30T00:32:34.433Z,97543
2015-11-30T00:32:44.621Z,97552
2015-11-30T00:32:54.417Z,97547
2015-11-30T00:33:04.636Z,97561
2015-11-30T00:33:14.417Z,97560
2015-11-30T00:33:24.452Z,97566
2015-11-30T00:33:34.420Z,97580
2015-11-30T00:34:04.858Z,97575
2015-11-30T00:34:35.033Z,97592
2015-11-30T00:34:44.814Z,97587
2015-11-30T00:34:54.814Z,97607
2015-11-30T00:35:05.220Z,97605
2015-11-30T00:35:14.783Z,97592
2015-11-30T00:35:24.830Z,97599
2015-11-30T00:35:34.801Z,97605
2015-11-30T00:35:45.020Z,97610
2015-11-30T00:35:54.848Z,97614
2015-11-30T00:36:04.848Z,97608
2015-11-30T00:36:14.880Z,97614
2015-11-30T00:36:24.864Z,97611
2015-11-30T00:36:34.835Z,97607
2015-11-30T00:36:44.819Z,97605
2015-11-30T00:37:09.022Z,97602
2015-11-30T00:37:15.210Z,97605
2015-11-30T00:37:25.069Z,97601
2015-11-30T00:37:35.041Z,97593
2015-11-30T00:37:45.041Z,97588
2015-11-30T00:37:55.056Z,97593
2015-11-30T00:38:05.041Z,97596
2015-11-30T00:38:24.494Z,97580
2015-11-30T00:38:34.700Z,97582
2015-11-30T00:38:44.466Z,97588
2015-11-30T00:38:54.466Z,97584
2015-11-30T00:39:14.638Z,97594
2015-11-30T00:39:24.841Z,97593
2015-11-30T00:39:34.875Z,97597
2015-11-30T00:39:44.656Z,97606
2015-11-30T00:40:04.859Z,97605
2015-11-30T00:40:14.828Z,97599
2015-11-30T00:40:24.859Z,97595
2015-11-30T00:40:45.112Z,97610
2015-11-30T00:40:55.112Z,97608
2015-11-30T00:41:05.128Z,97604
2015-11-30T00:41:15.097Z,97601
2015-11-30T00:41:39.256Z,97616
2015-11-30T00:41:45.318Z,97611
2015-11-30T00:41:55.350Z,97601
2015-11-30T00:42:05.318Z,97603
2015-11-30T00:42:15.365Z,97605
2015-11-30T00:42:25.318Z,97610
2015-11-30T00:42:35.537Z,97600
2015-11-30T00:42:45.352Z,97614
2015-11-30T00:42:55.555Z,97614
2015-11-30T00:43:05.367Z,97614
2015-11-30T00:43:15.336Z,97611
2015-11-30T00:43:25.570Z,97604
2015-11-30T00:43:35.367Z,97605
2015-11-30T00:43:45.355Z,97608
2015-11-30T00:43:55.355Z,97609
2015-11-30T00:44:05.386Z,97617
2015-11-30T00:44:15.386Z,97615
2015-11-30T00:44:25.386Z,97617
2015-11-30T00:44:35.386Z,97611
2015-11-30T00:44:45.560Z,97606
2015-11-30T00:45:09.732Z,97616
2015-11-30T00:45:15.997Z,97619
2015-11-30T00:45:25.966Z,97616
2015-11-30T00:45:35.950Z,97608
2015-11-30T00:45:45.953Z,97607
2015-11-30T00:45:55.969Z,97619
2015-11-30T00:46:06.188Z,97618
2015-11-30T00:46:15.969Z,97609
2015-11-30T00:46:25.953Z,97614
2015-11-30T00:46:36.157Z,97613
2015-11-30T00:46:46.831Z,97607
2015-11-30T00:47:07.050Z,97612
2015-11-30T00:47:17.222Z,97611
2015-11-30T00:47:27.035Z,97614
2015-11-30T00:47:47.288Z,97608
2015-11-30T00:47:57.256Z,97608
2015-11-30T00:48:17.506Z,97613
2015-11-30T00:48:27.475Z,97617
2015-11-30T00:48:37.506Z,97617
2015-11-30T00:48:47.681Z,97621
2015-11-30T00:48:57.478Z,97615
2015-11-30T00:49:07.931Z,97615
2015-11-30T00:49:17.494Z,97625
2015-11-30T00:49:41.666Z,97622
2015-11-30T00:49:47.902Z,97622
2015-11-30T00:49:57.933Z,97624
2015-11-30T00:50:07.964Z,97623
2015-11-30T00:50:17.933Z,97629
2015-11-30T00:50:28.136Z,97622
2015-11-30T00:50:38.121Z,97629
2015-11-30T00:50:47.936Z,97632
2015-11-30T00:50:57.905Z,97633
2015-11-30T00:51:08.421Z,97628
2015-11-30T00:51:28.655Z,97628
2015-11-30T00:51:38.624Z,97635
2015-11-30T00:51:59.283Z,97626
2015-11-30T00:52:09.064Z,97626
2015-11-30T00:52:19.064Z,97635
2015-11-30T00:52:29.064Z,97633
2015-11-30T00:52:39.314Z,97633
2015-11-30T00:52:49.064Z,97639
2015-11-30T00:52:59.098Z,97639
2015-11-30T00:53:09.270Z,97631
2015-11-30T00:53:19.098Z,97645
2015-11-30T00:53:29.067Z,97637
2015-11-30T00:53:49.505Z,97637
2015-11-30T00:53:59.272Z,97640
2015-11-30T00:54:09.304Z,97637
2015-11-30T00:54:19.304Z,97642
2015-11-30T00:54:29.554Z,97637
2015-11-30T00:54:39.288Z,97647
2015-11-30T00:54:49.335Z,97651
2015-11-30T00:54:59.291Z,97644
2015-11-30T00:55:09.338Z,97639
2015-11-30T00:55:19.338Z,97637
2015-11-30T00:55:29.322Z,97648
2015-11-30T00:55:39.322Z,97653
2015-11-30T00:55:49.307Z,97641
2015-11-30T00:55:59.325Z,97648
2015-11-30T00:56:09.310Z,97646
2015-11-30T00:56:19.325Z,97654
2015-11-30T00:56:29.513Z,97640
2015-11-30T00:56:39.310Z,97649
2015-11-30T00:56:59.969Z,97645
2015-11-30T00:57:09.766Z,97638
2015-11-30T00:57:20.266Z,97652
2015-11-30T00:57:29.734Z,97651
2015-11-30T00:57:39.766Z,97654
2015-11-30T00:57:49.781Z,97646
2015-11-30T00:57:59.769Z,97638
2015-11-30T00:58:09.753Z,97651
2015-11-30T00:58:19.769Z,97639
2015-11-30T00:58:29.769Z,97644
2015-11-30T00:58:39.816Z,97645
2015-11-30T00:59:10.443Z,97640
2015-11-30T00:59:20.693Z,97640
2015-11-30T00:59:30.443Z,97635
2015-11-30T00:59:40.443Z,97653
2015-11-30T00:59:50.443Z,97644
2015-11-30T01:00:14.617Z,97645
2015-11-30T01:00:20.852Z,97647
2015-11-30T01:00:30.633Z,97651
2015-11-30T01:00:40.633Z,97642
2015-11-30T01:00:50.633Z,97645
2015-11-30T01:00:59.930Z,97646
2015-11-30T01:01:34.293Z,97635
2015-11-30T01:01:40.528Z,97641
2015-11-30T01:01:50.559Z,97647
2015-11-30T01:02:00.575Z,97638
2015-11-30T01:02:10.528Z,97635
2015-11-30T01:02:20.528Z,97637
2015-11-30T01:02:30.528Z,97631
2015-11-30T01:02:40.592Z,97630
2015-11-30T01:03:04.733Z,97635
2015-11-30T01:03:24.920Z,97636
2015-11-30T01:03:35.123Z,97638
2015-11-30T01:04:05.158Z,97633
2015-11-30T01:04:15.189Z,97648
2015-11-30T01:04:25.205Z,97645
2015-11-30T01:04:35.158Z,97642
2015-11-30T01:04:45.208Z,97643
2015-11-30T01:04:55.161Z,97639
2015-11-30T01:05:15.395Z,97639
2015-11-30T01:05:25.364Z,97638
2015-11-30T01:05:35.364Z,97642
2015-11-30T01:05:45.382Z,97640
2015-11-30T01:05:55.414Z,97638
2015-11-30T01:06:05.429Z,97643
2015-11-30T01:06:15.398Z,97639
2015-11-30T01:06:25.414Z,97634
2015-11-30T01:06:35.382Z,97638
2015-11-30T01:06:45.416Z,97645
2015-11-30T01:06:55.463Z,97640
2015-11-30T01:07:05.431Z,97639
2015-11-30T01:07:15.431Z,97636
2015-11-30T01:07:25.603Z,97642
2015-11-30T01:07:55.841Z,97633
2015-11-30T01:08:05.887Z,97630
2015-11-30T01:08:15.653Z,97630
2015-11-30T01:08:25.622Z,97623
2015-11-30T01:08:35.622Z,97620
2015-11-30T01:08:45.828Z,97623
2015-11-30T01:08:55.640Z,97626
2015-11-30T01:09:05.640Z,97630
2015-11-30T01:09:16.140Z,97622
2015-11-30T01:09:36.359Z,97617
2015-11-30T01:09:46.361Z,97624
2015-11-30T01:09:56.346Z,97616
2015-11-30T01:10:06.346Z,97612
2015-11-30T01:10:30.517Z,97603
2015-11-30T01:10:50.725Z,97600
2015-11-30T01:10:56.771Z,97610
2015-11-30T01:11:06.709Z,97611
2015-11-30T01:11:16.725Z,97609
2015-11-30T01:11:26.725Z,97607
2015-11-30T01:11:36.771Z,97619
2015-11-30T01:11:56.978Z,97609
2015-11-30T01:12:41.337Z,97606
2015-11-30T01:12:51.321Z,97616
2015-11-30T01:13:01.356Z,97616
2015-11-30T01:13:11.340Z,97612
2015-11-30T01:13:21.527Z,97617
2015-11-30T01:13:31.356Z,97620
2015-11-30T01:13:41.340Z,97613
2015-11-30T01:14:05.498Z,97628
2015-11-30T01:14:11.967Z,97616
2015-11-30T01:14:21.967Z,97623
2015-11-30T01:14:31.998Z,97625
2015-11-30T01:14:41.748Z,97624
2015-11-30T01:14:51.748Z,97633
2015-11-30T01:15:01.782Z,97630
2015-11-30T01:15:12.001Z,97628
2015-11-30T01:15:21.736Z,97618
2015-11-30T01:15:31.736Z,97623
2015-11-30T01:15:41.767Z,97622
2015-11-30T01:15:51.751Z,97630
2015-11-30T01:16:01.754Z,97625
2015-11-30T01:16:11.989Z,97633
2015-11-30T01:16:21.989Z,97628
2015-11-30T01:16:31.817Z,97633
2015-11-30T01:16:41.801Z,97636
2015-11-30T01:16:51.770Z,97631
2015-11-30T01:17:01.803Z,97635
2015-11-30T01:17:25.975Z,97626
2015-11-30T01:17:32.006Z,97629
2015-11-30T01:17:42.006Z,97626
2015-11-30T01:17:52.053Z,97639
2015-11-30T01:18:02.009Z,97642
2015-11-30T01:18:12.009Z,97637
2015-11-30T01:18:22.025Z,97643
2015-11-30T01:18:32.259Z,97642
2015-11-30T01:18:42.228Z,97634
2015-11-30T01:18:52.056Z,97648
2015-11-30T01:19:12.247Z,97643
2015-11-30T01:19:22.247Z,97647
2015-11-30T01:19:32.450Z,97647
2015-11-30T01:19:42.231Z,97647
2015-11-30T01:20:02.624Z,97649
2015-11-30T01:20:12.436Z,97657
2015-11-30T01:20:22.405Z,97662
2015-11-30T01:20:32.436Z,97660
2015-11-30T01:20:42.420Z,97660
2015-11-30T01:20:52.405Z,97662
2015-11-30T01:21:02.408Z,97664
2015-11-30T01:21:12.455Z,97669
2015-11-30T01:21:36.611Z,97672
2015-11-30T01:21:42.861Z,97673
2015-11-30T01:21:53.158Z,97668
2015-11-30T01:22:02.630Z,97674
2015-11-30T01:22:12.676Z,97674
2015-11-30T01:22:48.270Z,97681
2015-11-30T01:22:54.176Z,97671
2015-11-30T01:23:04.163Z,97674
2015-11-30T01:23:14.335Z,97674
2015-11-30T01:23:24.367Z,97681
2015-11-30T01:23:34.163Z,97689
2015-11-30T01:23:44.351Z,97688
2015-11-30T01:23:54.148Z,97694
2015-11-30T01:24:04.147Z,97685
2015-11-30T01:24:14.132Z,97692
2015-11-30T01:24:24.366Z,97699
2015-11-30T01:24:44.569Z,97691
2015-11-30T01:24:54.569Z,97694
2015-11-30T01:25:04.552Z,97692
2015-11-30T01:25:14.552Z,97695
2015-11-30T01:25:24.552Z,97691
2015-11-30T01:25:34.552Z,97696
2015-11-30T01:25:44.568Z,97700
2015-11-30T01:25:54.568Z,97698
2015-11-30T01:26:04.534Z,97695
2015-11-30T01:26:14.566Z,97704
2015-11-30T01:26:24.566Z,97703
2015-11-30T01:26:45.191Z,97709
2015-11-30T01:26:54.987Z,97706
2015-11-30T01:27:15.157Z,97707
2015-11-30T01:27:25.173Z,97705
2015-11-30T01:27:35.704Z,97696
2015-11-30T01:27:45.173Z,97701
2015-11-30T01:27:55.173Z,97704
2015-11-30T01:28:05.188Z,97709
2015-11-30T01:28:15.385Z,97703
2015-11-30T01:28:25.198Z,97709
2015-11-30T01:28:35.182Z,97703
2015-11-30T01:28:45.229Z,97705
2015-11-30T01:28:55.182Z,97704
2015-11-30T01:29:05.182Z,97706
2015-11-30T01:29:15.584Z,97708
2015-11-30T01:29:25.178Z,97706
2015-11-30T01:29:35.178Z,97708
2015-11-30T01:29:45.194Z,97708
2015-11-30T01:29:55.413Z,97700
2015-11-30T01:30:05.194Z,97711
2015-11-30T01:30:15.268Z,97703
2015-11-30T01:30:25.440Z,97701
2015-11-30T01:30:35.205Z,97702
2015-11-30T01:30:45.237Z,97704
2015-11-30T01:30:55.221Z,97694
2015-11-30T01:31:05.237Z,97686
2015-11-30T01:31:15.200Z,97675
2015-11-30T01:31:25.435Z,97681
2015-11-30T01:31:35.216Z,97683
2015-11-30T01:31:45.200Z,97685
2015-11-30T01:31:55.200Z,97682
2015-11-30T01:32:05.404Z,97686
2015-11-30T01:32:15.212Z,97681
2015-11-30T01:32:25.212Z,97677
2015-11-30T01:32:35.228Z,97679
2015-11-30T01:32:45.243Z,97680
2015-11-30T01:32:55.243Z,97676
2015-11-30T01:33:15.400Z,97676
2015-11-30T01:33:25.400Z,97677
2015-11-30T01:33:35.400Z,97674
2015-11-30T01:33:45.431Z,97680
2015-11-30T01:33:55.400Z,97672
2015-11-30T01:34:05.415Z,97666
2015-11-30T01:34:26.134Z,97675
2015-11-30T01:34:35.696Z,97677
2015-11-30T01:34:45.681Z,97676
2015-11-30T01:34:55.634Z,97673
2015-11-30T01:35:05.665Z,97674
2015-11-30T01:35:15.712Z,97676
2015-11-30T01:35:25.650Z,97676
2015-11-30T01:35:35.853Z,97674
2015-11-30T01:35:59.837Z,97679
2015-11-30T01:36:06.025Z,97679
2015-11-30T01:36:15.853Z,97678
2015-11-30T01:36:25.837Z,97678
2015-11-30T01:36:35.837Z,97680
2015-11-30T01:36:56.259Z,97684
2015-11-30T01:37:06.071Z,97683
2015-11-30T01:37:16.056Z,97691
2015-11-30T01:37:26.088Z,97682
2015-11-30T01:37:36.057Z,97688
2015-11-30T01:37:46.088Z,97685
2015-11-30T01:37:56.057Z,97684
2015-11-30T01:38:06.322Z,97687
2015-11-30T01:38:16.088Z,97691
2015-11-30T01:38:26.105Z,97689
2015-11-30T01:38:36.073Z,97691
2015-11-30T01:38:46.073Z,97689
2015-11-30T01:38:56.073Z,97691
2015-11-30T01:39:06.089Z,97696
2015-11-30T01:39:26.341Z,97691
2015-11-30T01:39:36.388Z,97693
2015-11-30T01:39:46.341Z,97693
2015-11-30T01:39:56.341Z,97699
2015-11-30T01:40:06.372Z,97697
2015-11-30T01:40:16.544Z,97700
2015-11-30T01:40:26.374Z,97704
2015-11-30T01:40:36.546Z,97703
2015-11-30T01:40:46.390Z,97704
2015-11-30T01:41:06.577Z,97711
2015-11-30T01:41:16.562Z,97714
2015-11-30T01:41:26.766Z,97709
2015-11-30T01:41:50.938Z,97716
2015-11-30T01:42:11.610Z,97721
2015-11-30T01:42:21.813Z,97715
2015-11-30T01:42:31.597Z,97718
2015-11-30T01:42:41.831Z,97714
2015-11-30T01:42:51.597Z,97718
2015-11-30T01:43:01.831Z,97715
2015-11-30T01:43:11.628Z,97720
2015-11-30T01:43:41.803Z,97722
2015-11-30T01:43:51.803Z,97721
2015-11-30T01:44:01.788Z,97722
2015-11-30T01:44:11.819Z,97711
2015-11-30T01:44:21.834Z,97715
2015-11-30T01:44:31.803Z,97714
2015-11-30T01:44:41.821Z,97716
2015-11-30T01:44:51.805Z,97722
2015-11-30T01:45:02.008Z,97715
2015-11-30T01:45:11.821Z,97716
2015-11-30T01:45:21.805Z,97720
2015-11-30T01:45:31.821Z,97723
2015-11-30T01:45:41.807Z,97723
2015-11-30T01:45:52.073Z,97733
2015-11-30T01:46:01.807Z,97730
2015-11-30T01:46:11.838Z,97724
2015-11-30T01:46:21.823Z,97726
2015-11-30T01:46:32.026Z,97722
2015-11-30T01:46:41.841Z,97719
2015-11-30T01:46:51.826Z,97715
2015-11-30T01:47:01.841Z,97724
2015-11-30T01:47:22.076Z,97724
2015-11-30T01:47:32.060Z,97722
2015-11-30T01:47:42.093Z,97720
2015-11-30T01:47:52.265Z,97720
2015-11-30T01:48:02.093Z,97720
2015-11-30T01:48:12.109Z,97719
2015-11-30T01:48:22.312Z,97719
2015-11-30T01:48:32.078Z,97725
2015-11-30T01:48:42.080Z,97720
2015-11-30T01:48:52.127Z,97718
2015-11-30T01:49:02.314Z,97725
2015-11-30T01:49:12.314Z,97722
2015-11-30T01:49:22.330Z,97727
2015-11-30T01:49:32.080Z,97728
2015-11-30T01:49:42.083Z,97731
2015-11-30T01:50:02.489Z,97724
2015-11-30T01:50:12.520Z,97730
2015-11-30T01:50:22.505Z,97731
2015-11-30T01:50:42.680Z,97729
2015-11-30T01:50:52.711Z,97732
2015-11-30T01:51:02.680Z,97727
2015-11-30T01:51:12.711Z,97727
2015-11-30T01:51:22.711Z,97734
2015-11-30T01:51:32.695Z,97731
2015-11-30T01:51:42.698Z,97734
2015-11-30T01:51:52.698Z,97728
2015-11-30T01:52:02.714Z,97748
2015-11-30T01:52:12.714Z,97745
2015-11-30T01:52:22.714Z,97742
2015-11-30T01:52:32.745Z,97744
2015-11-30T01:52:42.764Z,97736
2015-11-30T01:52:52.717Z,97739
2015-11-30T01:53:02.764Z,97740
2015-11-30T01:53:12.967Z,97738
2015-11-30T01:53:22.764Z,97738
2015-11-30T01:53:32.717Z,97743
2015-11-30T01:53:42.719Z,97739
2015-11-30T01:53:52.766Z,97726
2015-11-30T01:54:02.781Z,97734
2015-11-30T01:54:12.953Z,97749
2015-11-30T01:54:22.734Z,97748
2015-11-30T01:54:52.972Z,97754
2015-11-30T01:55:03.175Z,97759
2015-11-30T01:55:12.956Z,97754
2015-11-30T01:55:22.972Z,97741
2015-11-30T01:55:32.941Z,97743
2015-11-30T01:55:42.941Z,97746
2015-11-30T01:56:03.115Z,97725
2015-11-30T01:56:13.162Z,97727
2015-11-30T01:56:23.147Z,97730
2015-11-30T01:56:47.303Z,97734
2015-11-30T01:56:53.397Z,97737
2015-11-30T01:57:03.401Z,97729
2015-11-30T01:57:13.401Z,97729
2015-11-30T01:57:23.369Z,97725
2015-11-30T01:57:33.354Z,97735
2015-11-30T01:57:43.369Z,97731
2015-11-30T01:57:53.416Z,97736
2015-11-30T01:58:03.403Z,97744
2015-11-30T01:58:13.403Z,97733
2015-11-30T01:58:23.403Z,97748
2015-11-30T01:58:43.590Z,97729
2015-11-30T01:58:53.653Z,97737
2015-11-30T01:59:03.592Z,97739
2015-11-30T01:59:13.659Z,97742
2015-11-30T01:59:23.612Z,97733
2015-11-30T01:59:33.596Z,97748
2015-11-30T01:59:43.627Z,97730
2015-11-30T01:59:53.612Z,97730
2015-11-30T02:00:14.022Z,97719
2015-11-30T02:00:23.975Z,97728
2015-11-30T02:00:33.975Z,97734
2015-11-30T02:00:43.991Z,97744
2015-11-30T02:00:53.991Z,97724
2015-11-30T02:01:03.303Z,97723
2015-11-30T02:01:14.025Z,97732
2015-11-30T02:01:23.994Z,97736
2015-11-30T02:01:34.212Z,97744
2015-11-30T02:01:44.056Z,97722
2015-11-30T02:01:54.041Z,97735
2015-11-30T02:02:04.025Z,97740
2015-11-30T02:02:14.011Z,97741
2015-11-30T02:02:24.011Z,97739
2015-11-30T02:02:34.011Z,97760
2015-11-30T02:02:44.261Z,97747
2015-11-30T02:02:54.058Z,97740
2015-11-30T02:03:04.027Z,97736
2015-11-30T02:03:14.029Z,97721
2015-11-30T02:03:34.201Z,97738
2015-11-30T02:03:44.201Z,97733
2015-11-30T02:03:54.232Z,97737
2015-11-30T02:04:04.216Z,97744
2015-11-30T02:04:14.220Z,97738
2015-11-30T02:04:24.220Z,97729
2015-11-30T02:04:34.252Z,97724
2015-11-30T02:04:44.236Z,97733
2015-11-30T02:04:54.252Z,97735
2015-11-30T02:05:04.236Z,97731
2015-11-30T02:05:14.238Z,97724
2015-11-30T02:05:24.254Z,97745
2015-11-30T02:05:34.254Z,97732
2015-11-30T02:05:44.269Z,97733
2015-11-30T02:05:54.472Z,97738
2015-11-30T02:06:04.254Z,97723
2015-11-30T02:06:14.272Z,97731
2015-11-30T02:06:24.288Z,97747
2015-11-30T02:06:34.257Z,97757
2015-11-30T02:06:44.679Z,97742
2015-11-30T02:06:54.257Z,97738
2015-11-30T02:07:04.272Z,97733
2015-11-30T02:07:24.478Z,97728
2015-11-30T02:07:34.510Z,97745
2015-11-30T02:07:44.478Z,97753
2015-11-30T02:07:54.494Z,97736
2015-11-30T02:08:04.478Z,97752
2015-11-30T02:08:14.510Z,97740
2015-11-30T02:08:24.497Z,97744
2015-11-30T02:08:34.497Z,97738
2015-11-30T02:08:44.497Z,97745
2015-11-30T02:08:54.747Z,97738
2015-11-30T02:09:04.497Z,97765
2015-11-30T02:09:14.513Z,97754
2015-11-30T02:09:24.516Z,97742
2015-11-30T02:09:34.531Z,97751
2015-11-30T02:09:44.516Z,97746
2015-11-30T02:09:54.547Z,97758
2015-11-30T02:10:04.516Z,97750
2015-11-30T02:10:14.547Z,97737
2015-11-30T02:10:38.721Z,97754
2015-11-30T02:11:19.721Z,97755
2015-11-30T02:11:29.736Z,97750
2015-11-30T02:11:39.755Z,97759
2015-11-30T02:11:49.724Z,97753
2015-11-30T02:11:59.005Z,97753
2015-11-30T02:12:09.927Z,97753
2015-11-30T02:12:20.161Z,97747
2015-11-30T02:12:29.958Z,97753
2015-11-30T02:12:39.727Z,97744
2015-11-30T02:12:49.727Z,97748
2015-11-30T02:12:59.774Z,97765
2015-11-30T02:13:09.742Z,97744
2015-11-30T02:13:19.946Z,97748
2015-11-30T02:13:29.742Z,97747
2015-11-30T02:13:49.980Z,97758
2015-11-30T02:13:59.949Z,97757
2015-11-30T02:14:10.370Z,97751
2015-11-30T02:14:19.964Z,97762
2015-11-30T02:14:30.167Z,97750
2015-11-30T02:14:50.404Z,97757
2015-11-30T02:15:00.388Z,97750
2015-11-30T02:15:10.372Z,97765
2015-11-30T02:15:29.826Z,97756
2015-11-30T02:15:39.844Z,97754
2015-11-30T02:15:49.110Z,97754
2015-11-30T02:15:59.891Z,97753
2015-11-30T02:16:09.860Z,97748
2015-11-30T02:16:20.047Z,97752
2015-11-30T02:16:29.844Z,97762
2015-11-30T02:16:39.847Z,97747
2015-11-30T02:16:49.847Z,97754
2015-11-30T02:16:59.878Z,97743
2015-11-30T02:17:09.878Z,97746
2015-11-30T02:17:20.050Z,97740
2015-11-30T02:17:29.847Z,97752
2015-11-30T02:17:39.896Z,97738
2015-11-30T02:17:49.865Z,97747
2015-11-30T02:17:59.865Z,97750
2015-11-30T02:18:10.068Z,97752
2015-11-30T02:18:19.880Z,97769
2015-11-30T02:18:40.915Z,97749
2015-11-30T02:18:50.727Z,97768
2015-11-30T02:19:00.930Z,97771
2015-11-30T02:19:10.743Z,97746
2015-11-30T02:19:20.696Z,97751
2015-11-30T02:19:31.133Z,97755
2015-11-30T02:19:40.933Z,97749
2015-11-30T02:20:01.652Z,97751
2015-11-30T02:20:11.605Z,97755
2015-11-30T02:20:32.027Z,97745
2015-11-30T02:20:41.858Z,97735
2015-11-30T02:20:51.827Z,97738
2015-11-30T02:21:01.827Z,97738
2015-11-30T02:21:11.889Z,97739
2015-11-30T02:21:21.858Z,97734
2015-11-30T02:21:31.827Z,97742
2015-11-30T02:21:56.002Z,97745
2015-11-30T02:22:02.158Z,97743
2015-11-30T02:22:12.174Z,97732
2015-11-30T02:22:22.189Z,97731
2015-11-30T02:22:32.814Z,97741
2015-11-30T02:22:42.205Z,97737
2015-11-30T02:22:52.611Z,97738
2015-11-30T02:23:02.208Z,97736
2015-11-30T02:23:12.411Z,97737
2015-11-30T02:23:22.255Z,97738
2015-11-30T02:23:32.239Z,97737
2015-11-30T02:23:42.192Z,97735
2015-11-30T02:23:52.192Z,97739
2015-11-30T02:24:02.258Z,97749
2015-11-30T02:24:12.227Z,97738
2015-11-30T02:24:22.211Z,97748
2015-11-30T02:24:32.242Z,97751
2015-11-30T02:24:42.211Z,97752
2015-11-30T02:24:52.211Z,97760
2015-11-30T02:25:02.463Z,97759
2015-11-30T02:25:12.244Z,97750
2015-11-30T02:25:22.416Z,97755
2015-11-30T02:25:32.744Z,97740
2015-11-30T02:25:42.447Z,97753
2015-11-30T02:26:02.669Z,97734
2015-11-30T02:26:12.622Z,97739
2015-11-30T02:26:32.794Z,97748
2015-11-30T02:26:42.794Z,97750
2015-11-30T02:26:52.810Z,97747
2015-11-30T02:27:02.813Z,97746
2015-11-30T02:27:13.422Z,97756
2015-11-30T02:27:22.875Z,97762